Time;durP1;ratioP1;P1;durP2;ratioP2;P2;SDS_P1;SDS_P2;PMS_P1;PMS_P2;Temp;Humidity;BMP_temperature;BMP_pressure;BME280_temperature;BME280_humidity;BME280_pressure;Samples;Min_cycle;Max_cycle;Signal;HPM_P1;HPM_P2
2022/03/14 00:00:56;;;;;;;2.60;2.40;;;;;;;10.71;63.58;101561.88;5032214;28;20483;-56
2022/03/14 00:03:25;;;;;;;2.60;2.40;;;;;;;10.69;63.44;101569.97;5033004;28;20029;-57
2022/03/14 00:05:51;;;;;;;3.65;2.30;;;;;;;10.70;64.16;101570.81;5033238;28;20353;-57
2022/03/14 00:08:18;;;;;;;2.78;2.58;;;;;;;10.68;63.70;101570.09;5032933;28;20199;-57
2022/03/14 00:10:45;;;;;;;3.53;2.50;;;;;;;10.66;64.16;101569.44;5020719;28;20033;-57
2022/03/14 00:13:12;;;;;;;2.70;2.50;;;;;;;10.67;63.91;101577.25;5032873;28;20095;-57
2022/03/14 00:15:40;;;;;;;2.88;2.35;;;;;;;10.68;63.99;101588.69;5033530;28;20534;-56
2022/03/14 00:18:07;;;;;;;2.63;2.42;;;;;;;10.67;64.61;101590.50;5032982;28;20480;-57
2022/03/14 00:20:32;;;;;;;2.70;2.50;;;;;;;10.68;64.22;101591.31;5032902;28;20719;-56
2022/03/14 00:22:58;;;;;;;2.53;2.30;;;;;;;10.63;64.06;101597.91;5032709;28;20026;-57
2022/03/14 00:25:24;;;;;;;2.90;2.70;;;;;;;10.60;64.55;101598.19;5031926;28;20029;-57
2022/03/14 00:27:49;;;;;;;2.70;2.50;;;;;;;10.58;64.39;101597.50;5032632;28;20112;-57
2022/03/14 00:30:14;;;;;;;2.95;2.45;;;;;;;10.55;64.95;101604.91;5032831;28;20029;-57
2022/03/14 00:32:40;;;;;;;3.03;2.72;;;;;;;10.53;64.62;101601.53;5033082;28;20021;-56
2022/03/14 00:35:09;;;;;;;3.25;2.70;;;;;;;10.52;65.05;101608.69;5032698;28;20030;-57
2022/03/14 00:37:36;;;;;;;2.90;2.60;;;;;;;10.56;64.83;101617.19;5048836;28;20455;-56
2022/03/14 00:40:04;;;;;;;3.53;2.95;;;;;;;10.54;64.88;101608.53;5032323;28;20021;-57
2022/03/14 00:42:29;;;;;;;3.08;2.78;;;;;;;10.50;65.03;101615.94;5031188;28;20030;-57
2022/03/14 00:44:54;;;;;;;3.40;2.75;;;;;;;10.53;65.15;101613.00;5032753;28;20013;-57
2022/03/14 00:47:21;;;;;;;3.33;3.00;;;;;;;10.48;64.81;101624.03;5032069;28;20017;-57
2022/03/14 00:49:47;;;;;;;4.78;2.90;;;;;;;10.48;65.07;101625.84;5032505;28;20104;-57
2022/03/14 00:52:12;;;;;;;3.70;2.97;;;;;;;10.50;65.71;101637.13;5032154;28;20209;-57
2022/03/14 00:54:38;;;;;;;3.15;2.85;;;;;;;10.48;65.35;101634.66;5032061;28;20038;-57
2022/03/14 00:57:04;;;;;;;3.38;2.90;;;;;;;10.47;66.64;101640.09;5031937;28;20424;-57
2022/03/14 00:59:29;;;;;;;3.35;3.05;;;;;;;10.45;66.84;101642.03;5031831;28;20025;-56
2022/03/14 01:01:55;;;;;;;3.40;3.10;;;;;;;10.38;67.25;101641.75;5032353;28;20412;-57
2022/03/14 01:04:21;;;;;;;4.03;3.10;;;;;;;10.33;67.44;101639.50;5033041;28;20460;-57
2022/03/14 01:06:46;;;;;;;3.42;2.88;;;;;;;10.33;67.54;101644.81;5036556;28;20096;-57
2022/03/14 01:09:11;;;;;;;3.50;3.13;;;;;;;10.33;67.24;101646.63;5032083;28;20060;-57
2022/03/14 01:11:38;;;;;;;3.90;3.03;;;;;;;10.31;67.80;101657.34;5031777;28;20037;-57
2022/03/14 01:14:04;;;;;;;3.60;3.10;;;;;;;10.28;67.48;101652.34;5031806;28;20056;-57
2022/03/14 01:16:29;;;;;;;4.53;3.40;;;;;;;10.28;68.05;101649.69;5032225;28;20064;-57
2022/03/14 01:18:55;;;;;;;4.45;3.15;;;;;;;10.25;67.74;101652.59;5031833;28;20472;-56
2022/03/14 01:21:21;;;;;;;3.83;3.15;;;;;;;10.24;68.32;101653.59;5038186;28;20025;-57
2022/03/14 01:23:46;;;;;;;5.10;3.40;;;;;;;10.23;68.55;101654.56;5031397;28;20037;-57
2022/03/14 01:26:11;;;;;;;3.38;3.08;;;;;;;10.24;68.24;101664.19;5031895;28;20364;-57
2022/03/14 01:28:36;;;;;;;4.78;3.60;;;;;;;10.23;68.07;101665.19;5031774;28;20072;-56
2022/03/14 01:31:02;;;;;;;4.95;3.30;;;;;;;10.23;67.94;101673.94;5031588;28;20469;-57
2022/03/14 01:33:27;;;;;;;4.75;3.45;;;;;;;10.19;68.38;101667.28;5032064;28;20053;-57
2022/03/14 01:35:52;;;;;;;4.65;3.30;;;;;;;10.19;68.25;101674.38;5032199;28;20041;-57
2022/03/14 01:38:18;;;;;;;3.47;3.15;;;;;;;10.19;68.56;101677.03;5031933;28;20645;-57
2022/03/14 01:40:43;;;;;;;5.03;3.60;;;;;;;10.18;68.90;101675.34;5031378;28;20099;-57
2022/03/14 01:43:08;;;;;;;3.75;3.28;;;;;;;10.19;68.90;101677.03;5031750;28;20502;-57
2022/03/14 01:45:34;;;;;;;4.38;3.53;;;;;;;10.15;68.76;101678.25;5032101;28;20026;-57
2022/03/14 01:47:59;;;;;;;4.35;3.55;;;;;;;10.09;68.74;101674.38;5031993;28;20029;-56
2022/03/14 01:50:25;;;;;;;4.18;3.35;;;;;;;10.13;68.93;101681.06;5031948;28;20025;-56
2022/03/14 01:52:50;;;;;;;4.20;3.55;;;;;;;10.09;69.45;101683.16;5031769;28;20068;-57
2022/03/14 01:55:16;;;;;;;4.00;3.55;;;;;;;10.11;69.11;101687.50;5031576;28;20037;-56
2022/03/14 01:57:41;;;;;;;4.00;3.60;;;;;;;10.12;69.11;101686.50;5031864;28;20580;-56
2022/03/14 02:00:09;;;;;;;4.25;3.70;;;;;;;10.08;69.34;101689.41;5031539;28;20112;-56
2022/03/14 02:02:35;;;;;;;3.78;3.42;;;;;;;10.12;69.09;101697.09;5030924;28;20071;-57
2022/03/14 02:05:00;;;;;;;4.03;3.60;;;;;;;10.09;69.35;101699.06;5031138;28;20061;-55
2022/03/14 02:07:26;;;;;;;4.25;3.40;;;;;;;10.08;68.95;101691.25;5032220;28;20358;-56
2022/03/14 02:09:51;;;;;;;6.10;3.65;;;;;;;10.07;69.64;101692.22;5035512;28;20080;-56
2022/03/14 02:12:18;;;;;;;4.15;3.70;;;;;;;10.07;68.88;101702.81;5035919;28;20041;-56
2022/03/14 02:14:43;;;;;;;4.18;3.70;;;;;;;10.03;69.90;101701.41;5035014;28;20542;-56
2022/03/14 02:17:11;;;;;;;4.93;3.72;;;;;;;10.06;69.99;101707.28;5033136;28;20044;-55
2022/03/14 02:19:36;;;;;;;4.43;3.80;;;;;;;10.02;70.27;101716.47;5033894;28;20022;-56
2022/03/14 02:22:08;;;;;;;4.60;4.05;;;;;;;10.05;69.59;101720.66;5034958;28;20029;-57
2022/03/14 02:24:34;;;;;;;5.28;4.13;;;;;;;10.04;69.53;101719.84;5035117;28;20033;-56
2022/03/14 02:26:59;;;;;;;5.10;4.32;;;;;;;10.08;69.63;101720.41;5039062;28;20106;-57
2022/03/14 02:29:24;;;;;;;5.43;4.28;;;;;;;10.04;70.04;101719.84;5040889;28;20026;-56
2022/03/14 02:31:52;;;;;;;4.93;4.10;;;;;;;9.97;70.31;101726.66;5034698;28;20039;-57
2022/03/14 02:34:18;;;;;;;5.75;4.55;;;;;;;9.94;69.96;101726.91;5034639;28;20033;-57
2022/03/14 02:36:43;;;;;;;4.55;4.10;;;;;;;9.91;70.33;101727.16;5035165;28;20053;-56
2022/03/14 02:39:09;;;;;;;5.00;4.18;;;;;;;9.90;70.35;101728.16;5034818;28;20067;-57
2022/03/14 02:41:36;;;;;;;5.00;4.18;;;;;;;9.87;70.44;101723.97;5034660;28;20034;-56
2022/03/14 02:44:06;;;;;;;4.95;4.25;;;;;;;9.90;70.64;101723.69;5034631;28;20033;-57
2022/03/14 02:46:34;;;;;;;5.55;3.95;;;;;;;9.88;71.03;101730.97;5049659;28;20376;-56
2022/03/14 02:48:59;;;;;;;4.75;4.20;;;;;;;9.88;70.89;101732.75;5034830;28;20043;-57
2022/03/14 02:51:24;;;;;;;4.72;3.97;;;;;;;9.89;70.95;101737.06;5034652;28;20037;-56
2022/03/14 02:53:51;;;;;;;4.57;4.10;;;;;;;9.88;71.22;101740.69;5034889;28;20086;-56
2022/03/14 02:56:17;;;;;;;4.68;4.05;;;;;;;9.87;71.58;101741.69;5033751;28;20652;-57
2022/03/14 02:58:43;;;;;;;5.32;4.00;;;;;;;9.86;71.19;101753.25;5035117;28;20079;-56
2022/03/14 03:01:09;;;;;;;4.80;4.22;;;;;;;9.88;71.02;101756.59;5028757;28;20472;-55
2022/03/14 03:03:34;;;;;;;4.75;3.85;;;;;;;9.85;71.29;101768.31;5033910;28;20022;-56
2022/03/14 03:06:00;;;;;;;5.03;4.03;;;;;;;9.81;71.09;101770.38;5031009;28;20457;-57
2022/03/14 03:08:25;;;;;;;5.15;3.90;;;;;;;9.79;71.34;101774.97;5032039;28;20033;-57
2022/03/14 03:10:51;;;;;;;4.43;4.03;;;;;;;9.78;71.62;101778.56;5033023;28;20182;-56
2022/03/14 03:13:17;;;;;;;4.38;3.97;;;;;;;9.74;71.10;101785.13;5032399;28;20060;-55
2022/03/14 03:15:42;;;;;;;4.10;3.70;;;;;;;9.74;71.62;101801.03;5033890;28;20087;-56
2022/03/14 03:18:09;;;;;;;4.68;4.10;;;;;;;9.69;71.24;101795.28;5032295;28;20033;-56
2022/03/14 03:20:34;;;;;;;4.13;3.70;;;;;;;9.68;71.97;101791.78;5033944;28;20395;-57
2022/03/14 03:23:03;;;;;;;6.78;4.30;;;;;;;9.77;71.31;101814.00;5035075;28;20034;-57
2022/03/14 03:25:28;;;;;;;4.43;3.90;;;;;;;9.67;72.42;101813.13;5012882;28;20123;-55
2022/03/14 03:27:54;;;;;;;5.93;4.10;;;;;;;9.62;73.12;101812.69;5028778;28;20480;-56
2022/03/14 03:30:19;;;;;;;5.75;4.30;;;;;;;9.57;73.82;101828.13;5033245;28;20033;-56
2022/03/14 03:32:44;;;;;;;4.43;4.03;;;;;;;9.50;74.30;101833.06;5034044;28;20037;-57
2022/03/14 03:35:10;;;;;;;4.40;3.95;;;;;;;9.49;74.16;101839.34;5033582;28;20030;-57
2022/03/14 03:37:35;;;;;;;4.63;4.10;;;;;;;9.45;74.63;101854.66;5034085;28;20033;-57
2022/03/14 03:40:01;;;;;;;5.15;4.22;;;;;;;9.40;74.61;101848.91;5032642;28;20088;-56
2022/03/14 03:42:26;;;;;;;4.93;4.43;;;;;;;9.41;74.40;101856.72;5033507;28;20033;-57
2022/03/14 03:44:51;;;;;;;7.35;4.72;;;;;;;9.46;73.52;101866.91;5031785;28;20544;-56
2022/03/14 03:47:17;;;;;;;7.10;5.00;;;;;;;9.46;73.88;101864.28;5033435;28;20032;-56
2022/03/14 03:49:42;;;;;;;6.88;4.60;;;;;;;9.48;73.62;101864.16;5033232;28;20436;-56
2022/03/14 03:52:08;;;;;;;6.10;4.82;;;;;;;9.41;73.98;101875.25;5032949;28;20035;-56
2022/03/14 03:54:34;;;;;;;5.65;4.60;;;;;;;9.39;73.58;101876.34;5033685;28;20072;-56
2022/03/14 03:56:59;;;;;;;7.32;4.80;;;;;;;9.17;74.95;101882.59;5032882;28;20183;-56
2022/03/14 03:59:25;;;;;;;6.72;4.80;;;;;;;9.18;75.21;101885.09;5032817;28;20075;-56
2022/03/14 04:01:50;;;;;;;6.80;5.00;;;;;;;9.18;75.02;101895.69;5032882;28;20480;-56
2022/03/14 04:04:16;;;;;;;5.95;5.35;;;;;;;9.07;76.07;101893.91;5033215;28;20455;-56
2022/03/14 04:06:42;;;;;;;7.32;5.00;;;;;;;9.23;75.77;101896.13;5032996;28;20040;-56
2022/03/14 04:09:08;;;;;;;7.03;5.30;;;;;;;9.00;77.75;101898.03;5020226;28;20037;-56
2022/03/14 04:11:35;;;;;;;6.85;5.40;;;;;;;8.93;78.19;101916.19;5031701;28;20033;-57
2022/03/14 04:14:01;;;;;;;8.00;5.88;;;;;;;9.14;76.83;101910.16;5033245;28;20036;-56
2022/03/14 04:16:27;;;;;;;7.18;5.95;;;;;;;8.80;78.93;101920.81;5033232;28;20033;-56
2022/03/14 04:18:53;;;;;;;8.93;6.25;;;;;;;8.74;79.51;101922.16;5033408;28;20065;-57
2022/03/14 04:21:20;;;;;;;8.25;6.13;;;;;;;8.75;79.43;101924.66;5033294;28;20065;-56
2022/03/14 04:23:45;;;;;;;8.63;6.00;;;;;;;8.75;79.24;101935.22;5033275;28;20026;-56
2022/03/14 04:26:11;;;;;;;8.50;5.90;;;;;;;8.73;79.32;101931.88;5033089;28;20100;-56
2022/03/14 04:28:36;;;;;;;8.07;6.30;;;;;;;8.75;79.85;101942.34;5032418;28;20449;-56
2022/03/14 04:31:03;;;;;;;9.68;6.35;;;;;;;8.74;79.64;101944.13;5032361;28;20022;-57
2022/03/14 04:33:30;;;;;;;7.70;6.32;;;;;;;8.79;78.98;101950.88;5025646;28;20075;-57
2022/03/14 04:35:56;;;;;;;13.25;6.55;;;;;;;8.76;79.45;101936.06;5032234;28;20033;-56
2022/03/14 04:38:21;;;;;;;8.45;5.90;;;;;;;8.79;79.27;101942.94;5033186;28;20029;-57
2022/03/14 04:40:46;;;;;;;7.85;6.40;;;;;;;8.74;79.41;101946.78;5032258;28;20048;-57
2022/03/14 04:43:12;;;;;;;8.25;6.35;;;;;;;8.75;78.88;101959.03;5019255;28;20647;-57
2022/03/14 04:45:38;;;;;;;9.43;6.30;;;;;;;8.73;79.24;101955.69;5030782;28;20022;-56
2022/03/14 04:48:06;;;;;;;10.45;6.60;;;;;;;8.68;79.52;101960.47;5032156;28;20044;-57
2022/03/14 04:50:32;;;;;;;11.05;6.13;;;;;;;8.70;79.41;101963.00;5032406;28;20025;-57
2022/03/14 04:52:58;;;;;;;10.45;6.78;;;;;;;8.75;78.65;101966.13;5019566;28;20044;-57
2022/03/14 04:55:24;;;;;;;8.93;6.82;;;;;;;8.76;78.80;101973.09;5032095;28;20033;-57
2022/03/14 04:57:49;;;;;;;9.07;7.22;;;;;;;8.61;79.35;101976.00;5032409;28;20038;-56
2022/03/14 05:00:15;;;;;;;10.60;7.20;;;;;;;8.69;78.65;101978.03;5030240;28;20503;-56
2022/03/14 05:02:40;;;;;;;8.70;7.32;;;;;;;8.56;79.40;101982.59;5023658;28;20029;-57
2022/03/14 05:05:10;;;;;;;9.95;7.35;;;;;;;8.54;79.53;101990.66;5031158;28;20029;-57
2022/03/14 05:07:35;;;;;;;9.57;7.47;;;;;;;8.56;79.72;101995.81;5028217;28;20326;-56
2022/03/14 05:10:01;;;;;;;13.07;7.47;;;;;;;8.51;79.54;102012.03;5027749;28;20080;-57
2022/03/14 05:12:30;;;;;;;10.25;7.47;;;;;;;8.58;79.41;102009.75;5031578;28;20033;-57
2022/03/14 05:14:56;;;;;;;10.30;7.43;;;;;;;8.50;79.25;102010.34;5031819;28;20041;-56
2022/03/14 05:17:21;;;;;;;14.77;8.02;;;;;;;8.57;79.53;102016.00;5030638;28;20034;-56
2022/03/14 05:19:47;;;;;;;11.80;7.22;;;;;;;8.51;79.53;102017.31;5031155;28;20088;-57
2022/03/14 05:22:12;;;;;;;11.43;7.88;;;;;;;8.53;79.56;102031.28;5031872;28;20117;-56
2022/03/14 05:24:37;;;;;;;11.68;7.97;;;;;;;8.46;79.75;102030.88;5031421;28;20029;-56
2022/03/14 05:27:02;;;;;;;12.35;8.52;;;;;;;8.42;80.17;102029.44;5030292;28;20112;-56
2022/03/14 05:29:28;;;;;;;14.88;8.70;;;;;;;8.43;80.02;102031.09;5031147;28;20468;-56
2022/03/14 05:31:53;;;;;;;14.05;9.10;;;;;;;8.42;80.59;102040.00;5031635;28;20087;-56
2022/03/14 05:34:19;;;;;;;13.45;9.00;;;;;;;8.52;79.32;102048.09;5031682;28;20030;-56
2022/03/14 05:36:44;;;;;;;15.90;9.00;;;;;;;8.45;80.06;102044.22;5029223;28;20032;-56
2022/03/14 05:39:10;;;;;;;14.48;9.80;;;;;;;8.46;79.97;102046.75;5035265;28;20037;-57
2022/03/14 05:41:35;;;;;;;12.65;9.23;;;;;;;8.52;79.58;102053.38;5031740;28;20148;-57
2022/03/14 05:44:00;;;;;;;14.15;9.88;;;;;;;8.43;79.96;102057.53;5031753;28;20028;-57
2022/03/14 05:46:26;;;;;;;15.98;10.82;;;;;;;8.42;80.00;102071.72;5031378;28;20022;-57
2022/03/14 05:48:51;;;;;;;17.25;10.60;;;;;;;8.44;80.06;102068.97;5030863;28;20091;-56
2022/03/14 05:51:16;;;;;;;17.77;11.20;;;;;;;8.44;79.67;102075.09;5030798;28;20040;-57
2022/03/14 05:53:41;;;;;;;16.13;11.18;;;;;;;8.51;79.86;102079.91;5031257;28;20104;-56
2022/03/14 05:56:07;;;;;;;17.73;12.10;;;;;;;8.44;80.16;102077.72;5030585;28;20087;-56
2022/03/14 05:58:33;;;;;;;19.92;11.98;;;;;;;8.39;80.20;102082.50;5021781;28;20076;-57
2022/03/14 06:00:58;;;;;;;18.48;12.00;;;;;;;8.45;80.15;102091.78;5024335;28;20018;-56
2022/03/14 06:03:23;;;;;;;18.70;11.98;;;;;;;8.45;80.14;102094.44;5022008;28;20065;-57
2022/03/14 06:05:49;;;;;;;18.92;12.15;;;;;;;8.53;80.02;102093.91;5022545;28;20039;-56
2022/03/14 06:08:15;;;;;;;18.25;11.98;;;;;;;8.46;80.18;102104.06;5018480;28;20464;-56
2022/03/14 06:10:46;;;;;;;19.27;12.15;;;;;;;8.44;80.06;102109.44;5020876;28;20037;-57
2022/03/14 06:13:15;;;;;;;17.35;12.02;;;;;;;8.45;80.05;102113.78;5039039;28;20022;-57
2022/03/14 06:15:42;;;;;;;18.35;12.63;;;;;;;8.45;80.68;102111.13;5026505;28;20383;-57
2022/03/14 06:18:07;;;;;;;19.70;12.80;;;;;;;8.47;80.03;102117.16;5021228;28;20220;-57
2022/03/14 06:20:32;;;;;;;19.88;13.02;;;;;;;8.46;80.75;102118.13;5024888;28;20109;-57
2022/03/14 06:22:59;;;;;;;19.35;13.20;;;;;;;8.47;80.09;102127.72;5022551;28;20360;-57
2022/03/14 06:25:24;;;;;;;21.27;13.05;;;;;;;8.53;80.05;102125.63;5023837;28;20033;-58
2022/03/14 06:27:50;;;;;;;19.90;12.77;;;;;;;8.47;80.42;102127.72;5021591;28;20030;-56
2022/03/14 06:30:16;;;;;;;20.40;13.18;;;;;;;8.51;80.13;102138.06;5024590;28;20041;-57
2022/03/14 06:32:43;;;;;;;20.45;13.20;;;;;;;8.50;79.89;102144.31;5029356;28;20091;-57
2022/03/14 06:35:10;;;;;;;21.52;13.73;;;;;;;8.45;80.64;102140.22;5027267;28;20157;-57
2022/03/14 06:37:36;;;;;;;23.60;13.65;;;;;;;8.51;80.44;102153.94;5023340;28;20037;-57
2022/03/14 06:40:03;;;;;;;20.30;13.30;;;;;;;8.52;80.39;102151.22;5029285;28;20480;-57
2022/03/14 06:42:29;;;;;;;20.42;13.43;;;;;;;8.53;80.22;102152.88;5031433;28;20378;-57
2022/03/14 06:45:00;;;;;;;21.90;14.30;;;;;;;8.47;80.02;102154.16;5028278;28;20033;-57
2022/03/14 06:47:25;;;;;;;22.13;14.07;;;;;;;8.48;80.37;102152.34;5023391;28;20374;-57
2022/03/14 06:49:51;;;;;;;24.38;13.80;;;;;;;8.52;80.05;102156.50;5023333;28;20017;-57
2022/03/14 06:52:16;;;;;;;24.92;14.45;;;;;;;8.51;80.41;102167.16;5024789;28;20025;-56
2022/03/14 06:54:42;;;;;;;20.25;14.18;;;;;;;8.51;80.60;102159.22;5023788;28;20037;-57
2022/03/14 06:57:09;;;;;;;20.65;13.70;;;;;;;8.50;80.43;102168.09;5026962;28;20025;-57
2022/03/14 06:59:35;;;;;;;25.60;14.98;;;;;;;8.54;80.35;102175.72;5022281;28;20030;-57
2022/03/14 07:02:01;;;;;;;22.60;14.70;;;;;;;8.53;80.30;102179.31;5026438;28;20148;-57
2022/03/14 07:04:27;;;;;;;23.30;14.48;;;;;;;8.60;79.94;102175.25;5025174;28;20054;-57
2022/03/14 07:06:52;;;;;;;22.13;14.43;;;;;;;8.58;80.14;102184.25;5029054;28;20050;-57
2022/03/14 07:09:18;;;;;;;22.42;14.27;;;;;;;8.57;79.79;102185.22;5029460;28;20695;-57
2022/03/14 07:11:43;;;;;;;23.55;14.75;;;;;;;8.57;80.29;102190.50;5026701;28;20088;-57
2022/03/14 07:14:09;;;;;;;25.30;14.73;;;;;;;8.64;79.83;102180.31;5027985;28;20409;-57
2022/03/14 07:16:35;;;;;;;21.83;14.50;;;;;;;8.64;80.00;102191.75;5023592;28;20038;-57
2022/03/14 07:19:00;;;;;;;25.02;14.93;;;;;;;8.64;79.55;102189.13;5028919;28;20076;-56
2022/03/14 07:21:29;;;;;;;21.83;14.70;;;;;;;8.70;79.39;102201.88;5030350;28;20032;-56
2022/03/14 07:23:57;;;;;;;21.90;14.23;;;;;;;8.67;79.77;102196.81;5031700;28;20033;-57
2022/03/14 07:26:23;;;;;;;23.63;14.23;;;;;;;8.72;79.43;102209.69;5028862;28;20396;-57
2022/03/14 07:28:49;;;;;;;23.48;14.18;;;;;;;8.77;79.13;102196.13;5033820;28;20033;-57
2022/03/14 07:31:18;;;;;;;25.67;13.90;;;;;;;8.85;78.05;102209.59;5033963;28;20055;-56
2022/03/14 07:33:44;;;;;;;22.27;14.07;;;;;;;8.75;79.10;102205.00;5034395;28;20032;-57
2022/03/14 07:36:11;;;;;;;22.77;13.85;;;;;;;8.85;78.67;102204.31;5033673;28;20056;-57
2022/03/14 07:38:36;;;;;;;21.90;14.43;;;;;;;8.78;78.46;102203.09;5034127;28;20509;-57
2022/03/14 07:41:01;;;;;;;23.58;14.07;;;;;;;8.75;78.68;102210.28;5033361;28;20104;-56
2022/03/14 07:43:27;;;;;;;22.08;13.95;;;;;;;8.77;78.65;102201.41;5033028;28;20036;-57
2022/03/14 07:45:52;;;;;;;23.88;14.27;;;;;;;8.85;78.07;102204.31;5033171;28;20033;-57
2022/03/14 07:48:17;;;;;;;24.65;14.07;;;;;;;8.94;77.58;102214.19;5033827;28;20037;-56
2022/03/14 07:50:43;;;;;;;26.25;15.18;;;;;;;8.86;78.44;102216.56;5033604;28;20108;-57
2022/03/14 07:53:08;;;;;;;22.15;14.32;;;;;;;8.89;78.71;102221.66;5033399;28;20033;-59
2022/03/14 07:55:33;;;;;;;23.10;14.35;;;;;;;8.98;77.99;102225.41;5033207;28;20065;-55
2022/03/14 07:57:59;;;;;;;21.45;14.73;;;;;;;8.98;77.57;102231.50;5033872;28;20112;-59
2022/03/14 08:00:24;;;;;;;24.88;14.82;;;;;;;8.96;78.26;102237.88;5033414;28;20026;-59
2022/03/14 08:02:50;;;;;;;26.90;14.40;;;;;;;8.98;77.92;102235.97;5032764;28;20060;-59
2022/03/14 08:05:16;;;;;;;27.05;15.38;;;;;;;8.99;77.63;102253.53;5029965;28;20029;-59
2022/03/14 08:07:46;;;;;;;25.20;15.38;;;;;;;8.98;77.83;102244.75;5034130;28;20025;-59
2022/03/14 08:10:13;;;;;;;24.92;15.48;;;;;;;8.94;77.80;102253.88;5032946;28;20056;-59
2022/03/14 08:12:45;;;;;;;23.48;15.02;;;;;;;8.92;78.11;102245.22;5032958;28;20421;-59
2022/03/14 08:15:10;;;;;;;25.13;16.30;;;;;;;9.01;77.29;102256.91;5032260;28;20029;-59
2022/03/14 08:17:36;;;;;;;25.33;16.30;;;;;;;8.99;77.73;102259.66;5033574;28;20064;-59
2022/03/14 08:20:03;;;;;;;29.70;16.58;;;;;;;8.97;78.25;102266.88;5031861;28;20026;-59
2022/03/14 08:22:29;;;;;;;25.77;15.30;;;;;;;9.01;78.12;102272.78;5033399;28;20453;-59
2022/03/14 08:24:54;;;;;;;25.33;14.95;;;;;;;8.97;78.09;102272.16;5032529;28;20026;-60
2022/03/14 08:27:19;;;;;;;26.10;15.88;;;;;;;9.02;78.00;102280.59;5032190;28;20033;-59
2022/03/14 08:29:45;;;;;;;27.55;15.43;;;;;;;9.01;77.69;102278.94;5032747;28;20029;-59
2022/03/14 08:32:12;;;;;;;24.10;14.70;;;;;;;9.14;77.23;102278.81;5033328;28;20484;-59
2022/03/14 08:34:38;;;;;;;24.73;15.07;;;;;;;9.05;77.48;102283.97;5032747;28;20040;-60
2022/03/14 08:37:03;;;;;;;24.08;15.27;;;;;;;9.08;77.24;102294.34;5033244;28;20056;-59
2022/03/14 08:39:31;;;;;;;26.52;15.10;;;;;;;9.11;77.81;102291.44;5032612;28;20041;-59
2022/03/14 08:41:57;;;;;;;27.20;14.48;;;;;;;9.19;77.18;102297.03;5033114;28;20473;-59
2022/03/14 08:44:22;;;;;;;22.40;14.25;;;;;;;9.24;76.70;102294.00;5031112;28;20022;-59
2022/03/14 08:46:47;;;;;;;25.40;14.15;;;;;;;9.21;77.19;102310.97;5032868;28;20025;-60
2022/03/14 08:49:13;;;;;;;24.35;14.25;;;;;;;9.27;77.45;102312.28;5032661;28;20048;-60
2022/03/14 08:51:40;;;;;;;23.77;13.98;;;;;;;9.36;76.73;102324.00;5032875;28;20037;-59
2022/03/14 08:54:05;;;;;;;22.33;13.65;;;;;;;9.37;76.79;102315.94;5032326;28;20036;-59
2022/03/14 08:56:30;;;;;;;25.70;13.05;;;;;;;9.35;76.69;102325.81;5032676;28;20033;-59
2022/03/14 08:58:56;;;;;;;21.67;12.30;;;;;;;9.37;76.46;102331.00;5032801;28;20033;-59
2022/03/14 09:01:21;;;;;;;21.33;12.98;;;;;;;9.39;76.68;102331.72;5032210;28;20080;-59
2022/03/14 09:03:46;;;;;;;19.63;11.27;;;;;;;9.46;76.12;102340.88;5031752;28;20029;-60
2022/03/14 09:06:11;;;;;;;21.85;12.65;;;;;;;9.47;75.91;102339.91;5032196;28;20033;-59
2022/03/14 09:08:37;;;;;;;22.15;12.57;;;;;;;9.50;75.84;102342.34;5032367;28;20057;-60
2022/03/14 09:11:02;;;;;;;21.45;12.50;;;;;;;9.68;75.11;102347.19;5027266;28;20057;-59
2022/03/14 09:13:28;;;;;;;22.05;12.48;;;;;;;9.69;74.09;102347.03;5023273;28;20037;-57
2022/03/14 09:15:54;;;;;;;19.52;12.93;;;;;;;9.59;75.87;102355.81;5029740;28;20072;-58
2022/03/14 09:18:21;;;;;;;25.63;12.35;;;;;;;9.63;75.01;102363.41;5031104;28;20525;-58
2022/03/14 09:20:47;;;;;;;21.42;12.10;;;;;;;9.74;74.56;102354.66;5031694;28;20137;-58
2022/03/14 09:23:13;;;;;;;23.10;12.20;;;;;;;9.67;74.72;102361.41;5031900;28;20108;-58
2022/03/14 09:25:39;;;;;;;21.63;12.48;;;;;;;9.68;74.54;102365.72;5031938;28;20540;-57
2022/03/14 09:28:04;;;;;;;21.38;12.68;;;;;;;9.77;74.21;102365.00;5030363;28;20073;-58
2022/03/14 09:30:29;;;;;;;19.55;11.80;;;;;;;9.86;74.02;102370.56;5028659;28;20123;-58
2022/03/14 09:32:55;;;;;;;18.90;11.30;;;;;;;9.95;73.93;102364.53;5031296;28;20060;-58
2022/03/14 09:35:23;;;;;;;19.13;11.38;;;;;;;10.06;74.10;102374.28;5027696;28;20029;-58
2022/03/14 09:37:49;;;;;;;17.88;10.32;;;;;;;10.14;72.63;102371.03;5030607;28;20034;-58
2022/03/14 09:40:17;;;;;;;18.58;10.43;;;;;;;10.19;72.72;102384.78;5025178;28;20034;-58
2022/03/14 09:42:46;;;;;;;17.30;9.40;;;;;;;10.19;71.30;102390.09;5026966;28;20113;-58
2022/03/14 09:45:14;;;;;;;20.08;10.25;;;;;;;10.27;72.39;102398.25;5030594;28;20029;-58
2022/03/14 09:47:43;;;;;;;15.90;9.52;;;;;;;10.33;71.74;102403.13;5031421;28;20037;-58
2022/03/14 09:50:14;;;;;;;15.48;9.65;;;;;;;10.34;71.48;102388.88;5030956;28;20040;-58
2022/03/14 09:52:42;;;;;;;17.77;10.10;;;;;;;10.40;70.86;102405.28;5030081;28;20025;-58
2022/03/14 09:55:09;;;;;;;19.83;10.30;;;;;;;10.42;70.66;102406.81;5029153;28;20025;-57
2022/03/14 09:57:37;;;;;;;19.38;9.88;;;;;;;10.46;71.15;102428.69;5026490;28;20037;-58
2022/03/14 10:00:10;;;;;;;18.88;9.98;;;;;;;10.48;71.30;102432.06;5030382;28;20022;-58
2022/03/14 10:02:39;;;;;;;;;;;;;;;10.63;70.32;102436.16;5031456;28;20032;-58
2022/03/14 10:05:08;;;;;;;17.45;10.30;;;;;;;10.43;70.64;102434.22;5030517;28;20594;-58
2022/03/14 10:07:34;;;;;;;17.85;10.30;;;;;;;10.43;70.33;102440.38;5028088;28;20460;-58
2022/03/14 10:10:00;;;;;;;17.75;9.63;;;;;;;10.43;70.37;102434.22;5023474;28;20088;-58
2022/03/14 10:12:25;;;;;;;16.10;9.82;;;;;;;10.49;69.18;102436.41;5021473;28;20119;-58
2022/03/14 10:14:51;;;;;;;16.48;9.10;;;;;;;10.59;68.37;102439.16;5016955;28;20026;-59
2022/03/14 10:17:16;;;;;;;17.55;9.48;;;;;;;10.53;69.60;102434.34;5028968;28;20461;-59
2022/03/14 10:19:56;;;;;;;13.52;8.52;;;;;;;10.71;68.78;102440.81;5030744;28;20033;-58
2022/03/14 10:22:22;;;;;;;14.65;7.68;;;;;;;10.72;67.35;102445.16;5026514;28;20044;-58
2022/03/14 10:24:48;;;;;;;14.85;8.30;;;;;;;10.70;67.79;102451.59;5021223;28;20037;-58
2022/03/14 10:27:19;;;;;;;15.60;8.38;;;;;;;10.70;66.99;102456.91;5035098;28;20036;-58
2022/03/14 10:29:49;;;;;;;17.67;8.77;;;;;;;10.67;68.70;102457.97;5029457;28;20461;-58
2022/03/14 10:32:31;;;;;;;17.85;8.73;;;;;;;10.69;67.60;102465.78;5031036;28;20061;-58
2022/03/14 10:35:03;;;;;;;17.53;9.70;;;;;;;10.79;67.84;102465.91;5032492;28;20114;-58
2022/03/14 10:37:29;;;;;;;17.35;9.75;;;;;;;10.78;67.57;102465.06;5035101;28;20057;-58
2022/03/14 10:40:04;;;;;;;19.70;11.48;;;;;;;10.89;67.26;102467.72;5033498;28;20029;-58
2022/03/14 10:42:41;;;;;;;18.70;11.68;;;;;;;10.85;67.90;102476.06;5033516;28;20030;-58
2022/03/14 10:45:10;;;;;;;22.13;12.68;;;;;;;10.85;66.68;102466.25;5033613;28;20070;-57
2022/03/14 10:47:36;;;;;;;17.95;11.93;;;;;;;11.02;66.63;102477.34;5034574;28;20108;-57
2022/03/14 10:50:01;;;;;;;18.52;11.93;;;;;;;10.88;66.82;102481.94;5043036;28;20406;-57
2022/03/14 10:52:27;;;;;;;20.35;11.55;;;;;;;10.86;67.02;102483.88;5037844;28;20393;-57
2022/03/14 10:54:53;;;;;;;17.25;11.10;;;;;;;11.00;67.38;102487.25;5030893;28;20067;-57
2022/03/14 10:57:22;;;;;;;19.52;9.45;;;;;;;11.09;66.11;102483.84;5019543;28;20034;-57
2022/03/14 10:59:49;;;;;;;14.75;9.70;;;;;;;11.19;66.34;102489.22;5025142;28;20366;-57
2022/03/14 11:02:20;;;;;;;17.35;8.50;;;;;;;11.30;66.44;102497.16;5021266;28;20025;-57
2022/03/14 11:04:51;;;;;;;14.98;8.07;;;;;;;11.33;65.02;102505.84;5022894;28;20057;-56
2022/03/14 11:07:18;;;;;;;14.55;7.47;;;;;;;11.33;64.53;102496.06;5029480;28;20784;-58
2022/03/14 11:09:47;;;;;;;11.05;7.00;;;;;;;11.30;64.64;102496.34;5031131;28;20508;-55
2022/03/14 11:12:18;;;;;;;14.07;7.40;;;;;;;11.43;63.93;102501.47;5032130;28;20026;-57
2022/03/14 11:15:04;;;;;;;12.05;7.32;;;;;;;11.58;63.19;102499.38;5033678;28;20037;-56
2022/03/14 11:17:34;;;;;;;15.30;7.25;;;;;;;11.44;63.72;102503.16;5025170;28;20026;-57